Time;durP1;ratioP1;P1;durP2;ratioP2;P2;SDS_P1;SDS_P2;PMS_P1;PMS_P2;Temp;Humidity;BMP_temperature;BMP_pressure;BME280_temperature;BME280_humidity;BME280_pressure;Samples;Min_cycle;Max_cycle;Signal;HPM_P1;HPM_P2
2022/01/20 00:00:19;;;;;;;14.35;1.60;;;4.30;99.90;;;;;;4956423;29;20039;-80
2022/01/20 00:02:46;;;;;;;10.93;3.03;;;4.40;99.90;;;;;;4955767;29;20055;-80
2022/01/20 00:23:41;;;;;;;9.95;1.55;;;3.90;99.90;;;;;;4956873;29;20515;-78
2022/01/20 00:26:14;;;;;;;18.85;2.90;;;3.80;99.90;;;;;;4956530;29;20130;-78
2022/01/20 00:28:43;;;;;;;9.88;1.70;;;3.70;99.90;;;;;;4939915;29;20506;-78
2022/01/20 00:31:37;;;;;;;5.75;1.10;;;3.60;99.90;;;;;;4957728;29;20039;-78
2022/01/20 00:34:30;;;;;;;12.93;2.00;;;3.60;99.90;;;;;;4956277;29;20101;-78
2022/01/20 00:37:16;;;;;;;7.35;1.98;;;3.60;99.90;;;;;;4956176;29;20078;-78
2022/01/20 00:39:41;;;;;;;4.70;1.30;;;3.50;99.90;;;;;;4956355;29;20055;-78
2022/01/20 00:42:08;;;;;;;11.25;1.73;;;3.50;99.90;;;;;;4956658;29;20049;-78
2022/01/20 00:44:34;;;;;;;5.15;1.15;;;3.50;99.90;;;;;;4956329;29;20047;-78
2022/01/20 00:46:59;;;;;;;14.02;1.30;;;3.50;99.90;;;;;;4955359;29;20051;-78
2022/01/20 00:49:25;;;;;;;8.27;1.08;;;3.50;99.90;;;;;;4956449;29;20110;-78
2022/01/20 00:51:50;;;;;;;8.68;1.80;;;3.50;99.90;;;;;;4955682;28;20410;-78
2022/01/20 00:54:16;;;;;;;6.00;1.05;;;3.60;99.90;;;;;;4955871;29;20451;-78
2022/01/20 00:56:42;;;;;;;5.53;1.65;;;3.50;99.90;;;;;;4955527;29;20133;-78
2022/01/20 00:59:07;;;;;;;13.85;1.58;;;3.50;99.90;;;;;;4956990;28;20081;-78
2022/01/20 01:01:33;;;;;;;5.00;1.17;;;3.50;99.90;;;;;;4955466;29;20082;-78
2022/01/20 01:03:58;;;;;;;7.90;1.98;;;3.50;99.90;;;;;;4955915;29;20074;-78
2022/01/20 01:06:41;;;;;;;13.40;3.30;;;3.50;99.90;;;;;;4939451;29;20120;-78
2022/01/20 01:09:07;;;;;;;9.25;1.65;;;3.40;99.90;;;;;;4955247;29;20094;-78
2022/01/20 01:11:34;;;;;;;5.50;1.65;;;3.40;99.90;;;;;;4939590;29;20403;-78
2022/01/20 01:14:01;;;;;;;8.80;1.05;;;3.50;99.90;;;;;;4955518;29;20043;-78
2022/01/20 01:16:39;;;;;;;7.38;1.30;;;3.50;99.90;;;;;;4955799;29;20395;-78
2022/01/20 01:22:03;;;;;;;6.13;1.00;;;3.70;99.90;;;;;;4955679;29;20097;-78
2022/01/20 01:24:29;;;;;;;6.10;1.45;;;3.70;99.90;;;;;;4954969;29;20043;-78
2022/01/20 01:26:54;;;;;;;5.95;1.15;;;3.80;99.90;;;;;;4958256;28;20118;-78
2022/01/20 01:29:43;;;;;;;6.38;1.42;;;3.90;99.90;;;;;;4958632;29;20043;-78
2022/01/20 01:32:08;;;;;;;5.40;1.45;;;3.90;99.90;;;;;;4957623;29;20513;-78
2022/01/20 01:34:36;;;;;;;7.35;1.10;;;3.90;99.90;;;;;;4958723;29;20299;-77
2022/01/20 01:39:28;;;;;;;5.57;1.52;;;3.90;99.90;;;;;;4957156;29;20102;-78
2022/01/20 01:41:56;;;;;;;6.07;1.20;;;3.90;99.90;;;;;;4956623;29;20106;-78
2022/01/20 01:44:25;;;;;;;7.53;1.23;;;3.90;99.90;;;;;;4958630;29;20062;-78
2022/01/20 01:46:52;;;;;;;4.20;0.95;;;3.90;99.90;;;;;;4956878;29;20491;-78
2022/01/20 01:49:19;;;;;;;5.30;1.27;;;3.90;99.90;;;;;;4957486;29;20070;-78
2022/01/20 01:51:45;;;;;;;5.78;1.05;;;3.90;99.90;;;;;;4958400;28;20070;-78
2022/01/20 01:54:12;;;;;;;6.95;1.10;;;3.80;99.90;;;;;;4959888;28;20075;-78
2022/01/20 01:56:40;;;;;;;6.45;0.90;;;3.80;99.90;;;;;;4959352;28;20058;-78
2022/01/20 01:59:06;;;;;;;5.00;1.00;;;3.70;99.90;;;;;;4940572;29;20054;-78
2022/01/20 02:01:35;;;;;;;2.03;0.70;;;3.80;99.90;;;;;;4957647;29;20043;-78
2022/01/20 02:04:11;;;;;;;5.40;0.90;;;3.80;99.90;;;;;;4955805;28;20117;-77
2022/01/20 02:09:23;;;;;;;2.25;0.28;;;3.90;99.90;;;;;;4955995;29;20055;-77
2022/01/20 02:19:57;;;;;;;5.05;0.52;;;4.10;99.90;;;;;;4957064;29;20058;-77
2022/01/20 02:22:23;;;;;;;2.20;0.40;;;4.00;99.90;;;;;;4956590;29;20062;-77
2022/01/20 02:24:49;;;;;;;5.43;0.60;;;4.00;99.90;;;;;;4956114;29;20118;-77
2022/01/20 02:27:14;;;;;;;5.20;0.95;;;3.90;99.90;;;;;;4954186;29;20179;-77
2022/01/20 02:29:41;;;;;;;6.97;1.00;;;3.90;99.90;;;;;;4954973;29;20405;-78
2022/01/20 02:32:07;;;;;;;6.32;1.23;;;3.90;99.90;;;;;;4955201;29;20035;-78
2022/01/20 02:34:33;;;;;;;8.75;1.10;;;3.90;99.90;;;;;;4955725;29;20039;-81
2022/01/20 02:37:03;;;;;;;5.70;0.80;;;3.90;99.90;;;;;;4956924;29;20054;-81
2022/01/20 02:44:53;;;;;;;9.75;1.08;;;3.90;99.90;;;;;;4956666;29;20090;-82
2022/01/20 02:47:21;;;;;;;6.85;0.80;;;3.90;99.90;;;;;;4956581;29;20063;-81
2022/01/20 02:49:47;;;;;;;8.25;1.05;;;3.90;99.90;;;;;;4941857;29;20043;-82
2022/01/20 02:52:12;;;;;;;11.88;1.13;;;4.00;99.90;;;;;;4956438;29;20098;-81
2022/01/20 02:54:38;;;;;;;6.22;0.90;;;4.00;99.90;;;;;;4953904;29;20074;-77
2022/01/20 02:57:05;;;;;;;8.73;1.42;;;4.20;99.90;;;;;;4937625;29;20125;-77
2022/01/20 02:59:33;;;;;;;4.78;0.88;;;4.20;99.90;;;;;;4954459;29;20058;-77
2022/01/20 03:02:00;;;;;;;6.55;1.67;;;4.20;99.90;;;;;;4955480;28;20470;-77
2022/01/20 03:04:26;;;;;;;4.30;1.20;;;4.20;99.90;;;;;;4938984;29;20047;-77
2022/01/20 03:06:52;;;;;;;4.45;0.88;;;4.20;99.90;;;;;;4955603;28;20062;-77
2022/01/20 03:09:18;;;;;;;5.30;0.82;;;4.20;99.90;;;;;;4955440;28;20046;-77
2022/01/20 03:11:44;;;;;;;17.15;1.92;;;4.20;99.90;;;;;;4953381;29;20430;-77
2022/01/20 03:14:09;;;;;;;9.48;1.73;;;4.20;99.90;;;;;;4953348;28;20043;-77
2022/01/20 03:16:35;;;;;;;3.83;1.25;;;4.10;99.90;;;;;;4953485;29;20414;-77
2022/01/20 03:19:01;;;;;;;8.57;1.20;;;4.10;99.90;;;;;;4954818;28;20051;-77
2022/01/20 03:21:26;;;;;;;4.22;0.82;;;4.10;99.90;;;;;;4953615;29;20039;-78
2022/01/20 03:23:52;;;;;;;11.07;1.50;;;4.00;99.90;;;;;;4955197;29;20404;-77
2022/01/20 03:26:17;;;;;;;14.25;1.45;;;4.00;99.90;;;;;;4953403;29;20087;-77
2022/01/20 03:28:43;;;;;;;5.25;1.10;;;3.90;99.90;;;;;;4953679;29;20074;-77
2022/01/20 03:31:08;;;;;;;14.02;1.48;;;3.90;99.90;;;;;;4953474;29;20122;-77
2022/01/20 03:33:34;;;;;;;11.30;1.45;;;3.90;99.90;;;;;;4953192;29;20050;-77
2022/01/20 03:36:00;;;;;;;5.53;1.10;;;3.90;99.90;;;;;;4954270;29;20054;-77
2022/01/20 03:38:25;;;;;;;7.82;1.55;;;3.90;99.90;;;;;;4954261;28;20043;-77
2022/01/20 03:40:51;;;;;;;8.50;1.20;;;3.80;99.90;;;;;;4953488;29;20079;-80
2022/01/20 03:43:18;;;;;;;9.98;1.65;;;3.80;99.90;;;;;;4953490;29;20058;-79
2022/01/20 03:45:49;;;;;;;10.88;2.13;;;3.80;99.90;;;;;;4952840;29;20410;-79
2022/01/20 03:48:14;;;;;;;18.85;2.15;;;3.70;99.90;;;;;;4952672;29;20491;-79
2022/01/20 03:53:24;;;;;;;6.25;1.80;;;3.80;99.90;;;;;;4953299;29;20110;-80
2022/01/20 03:55:50;;;;;;;11.00;2.28;;;3.80;99.90;;;;;;4935905;29;20051;-79
2022/01/20 03:58:16;;;;;;;12.63;2.03;;;3.70;99.90;;;;;;4953117;29;20054;-80
2022/01/20 04:00:43;;;;;;;6.13;1.92;;;3.70;99.90;;;;;;4951804;29;20529;-80
2022/01/20 04:03:09;;;;;;;11.75;2.83;;;3.60;99.90;;;;;;4952152;29;20533;-79
2022/01/20 04:05:38;;;;;;;12.10;2.13;;;3.60;99.90;;;;;;4952035;29;20074;-79
2022/01/20 04:08:06;;;;;;;8.38;2.17;;;3.60;99.90;;;;;;4953363;29;20134;-79
2022/01/20 04:10:32;;;;;;;7.15;1.35;;;3.70;99.90;;;;;;4952822;29;20054;-80
2022/01/20 04:12:57;;;;;;;18.98;2.50;;;3.70;99.90;;;;;;4952664;29;20051;-80
2022/01/20 04:15:28;;;;;;;18.35;2.90;;;3.70;99.90;;;;;;4952069;29;20426;-79
2022/01/20 04:17:56;;;;;;;14.23;2.60;;;3.80;99.90;;;;;;4953412;29;20131;-79
2022/01/20 04:20:21;;;;;;;24.40;4.25;;;3.80;99.90;;;;;;4952158;29;20043;-79
2022/01/20 04:22:47;;;;;;;15.32;2.88;;;3.80;99.90;;;;;;4951971;29;20483;-79
2022/01/20 04:25:13;;;;;;;11.73;2.17;;;3.80;99.90;;;;;;4953833;28;20054;-79
2022/01/20 04:27:38;;;;;;;10.48;2.03;;;3.80;99.90;;;;;;4940305;29;20043;-80
2022/01/20 04:30:04;;;;;;;19.65;3.45;;;3.80;99.90;;;;;;4956176;29;20039;-80
2022/01/20 04:32:30;;;;;;;16.55;2.45;;;3.80;99.90;;;;;;4955405;29;20384;-79
2022/01/20 04:34:55;;;;;;;8.88;2.28;;;3.80;99.90;;;;;;4956410;29;20043;-79
2022/01/20 04:37:21;;;;;;;14.60;2.60;;;3.80;99.90;;;;;;4956207;29;20047;-80
2022/01/20 04:39:49;;;;;;;13.85;2.08;;;3.80;99.90;;;;;;4955903;29;20054;-80
2022/01/20 04:42:16;;;;;;;22.05;4.55;;;3.80;99.90;;;;;;4955247;29;20047;-79
2022/01/20 04:44:48;;;;;;;18.73;2.65;;;3.80;99.90;;;;;;4940029;29;20095;-79
2022/01/20 04:47:25;;;;;;;18.33;3.13;;;3.80;99.90;;;;;;4939943;29;20040;-79
2022/01/20 04:58:03;;;;;;;13.40;3.10;;;3.70;99.90;;;;;;4955937;29;20118;-78
2022/01/20 05:00:29;;;;;;;14.73;1.83;;;3.70;99.90;;;;;;4954859;29;20047;-78
2022/01/20 05:02:55;;;;;;;13.93;2.10;;;3.70;99.90;;;;;;4956975;28;20043;-78
2022/01/20 05:05:21;;;;;;;12.55;2.50;;;3.60;99.90;;;;;;4956352;28;20050;-78
2022/01/20 05:07:47;;;;;;;11.20;1.90;;;3.50;99.90;;;;;;4954936;29;20054;-78
2022/01/20 05:10:13;;;;;;;11.73;1.95;;;3.50;99.90;;;;;;4955693;28;20043;-78
2022/01/20 05:13:06;;;;;;;11.60;1.90;;;3.50;99.90;;;;;;4955590;29;20036;-78
2022/01/20 05:15:25;;;;;;;16.15;2.30;;;3.50;99.90;;;;;;4954024;29;20051;-78
2022/01/20 05:17:52;;;;;;;13.98;2.13;;;3.40;99.90;;;;;;4956129;29;20517;-78
2022/01/20 05:20:17;;;;;;;16.30;1.67;;;3.50;99.90;;;;;;4957041;28;20470;-78
2022/01/20 05:22:43;;;;;;;8.25;1.50;;;3.50;99.90;;;;;;4958011;28;20063;-78
2022/01/20 05:25:09;;;;;;;11.38;2.05;;;3.50;99.90;;;;;;4956140;29;20043;-78
2022/01/20 05:27:34;;;;;;;7.53;1.60;;;3.60;99.90;;;;;;4955577;29;20502;-78
2022/01/20 05:30:00;;;;;;;9.35;1.85;;;3.60;99.90;;;;;;4955020;29;20042;-78
2022/01/20 05:32:26;;;;;;;16.92;1.95;;;3.60;99.90;;;;;;4957224;28;20035;-78
2022/01/20 05:34:52;;;;;;;6.55;2.05;;;3.60;99.90;;;;;;4954324;29;20073;-77
2022/01/20 05:37:18;;;;;;;11.43;1.80;;;3.50;99.90;;;;;;4955398;28;20053;-77
2022/01/20 05:39:45;;;;;;;12.52;1.65;;;3.50;99.90;;;;;;4954836;29;20421;-77
2022/01/20 05:42:11;;;;;;;13.52;1.88;;;3.40;99.90;;;;;;4955501;28;20130;-76
2022/01/20 05:44:36;;;;;;;9.77;1.80;;;3.30;99.90;;;;;;4954200;29;20130;-78
2022/01/20 05:47:10;;;;;;;7.93;1.35;;;3.20;99.90;;;;;;4953092;29;20047;-77
2022/01/20 05:49:36;;;;;;;8.68;1.67;;;3.10;99.90;;;;;;4938155;29;20043;-77
2022/01/20 05:52:02;;;;;;;7.00;1.30;;;3.00;99.90;;;;;;4955329;28;20049;-77
2022/01/20 05:54:28;;;;;;;11.32;2.10;;;3.00;99.90;;;;;;4954400;29;20071;-77
2022/01/20 05:56:53;;;;;;;17.85;2.58;;;2.90;99.90;;;;;;4954230;29;20043;-77
2022/01/20 05:59:19;;;;;;;9.63;1.40;;;2.90;99.90;;;;;;4953941;29;20050;-76
2022/01/20 06:01:52;;;;;;;8.65;1.20;;;2.80;99.90;;;;;;4953175;29;20047;-77
2022/01/20 06:04:18;;;;;;;4.57;1.48;;;2.80;99.90;;;;;;4954751;29;20102;-77
2022/01/20 06:06:44;;;;;;;8.07;1.40;;;2.80;99.90;;;;;;4938180;29;20047;-77
2022/01/20 06:09:10;;;;;;;10.68;1.65;;;2.70;99.90;;;;;;4953902;29;20109;-77
2022/01/20 06:11:36;;;;;;;9.20;2.38;;;2.60;99.90;;;;;;4937818;29;20479;-79
2022/01/20 06:14:03;;;;;;;13.80;1.52;;;2.50;99.90;;;;;;4955012;29;20035;-83
2022/01/20 06:16:28;;;;;;;14.40;3.47;;;2.60;99.90;;;;;;4941521;29;20521;-82
2022/01/20 06:18:54;;;;;;;8.57;1.40;;;2.50;99.90;;;;;;4941285;29;20038;-82
2022/01/20 06:21:19;;;;;;;20.13;2.95;;;2.50;99.90;;;;;;4938947;29;20045;-84
2022/01/20 06:23:45;;;;;;;9.80;1.67;;;2.40;99.90;;;;;;4939304;29;20126;-82
2022/01/20 06:26:11;;;;;;;12.77;1.80;;;2.40;99.90;;;;;;4948789;29;20043;-80
2022/01/20 06:28:40;;;;;;;12.27;1.58;;;2.30;99.90;;;;;;4967992;29;20046;-80
2022/01/20 06:31:05;;;;;;;17.98;3.55;;;2.30;99.90;;;;;;4951455;29;20035;-81
2022/01/20 06:33:31;;;;;;;13.77;1.77;;;2.20;99.90;;;;;;4950549;29;20038;-81
2022/01/20 06:35:57;;;;;;;14.77;4.75;;;2.20;99.90;;;;;;4966651;29;20086;-77
2022/01/20 06:38:23;;;;;;;10.93;2.85;;;2.10;99.90;;;;;;4968263;29;20546;-81
2022/01/20 06:40:49;;;;;;;9.82;2.65;;;2.10;99.90;;;;;;4952057;29;20057;-81
2022/01/20 06:43:15;;;;;;;13.68;2.42;;;2.10;99.90;;;;;;4946988;29;20074;-80
2022/01/20 06:45:40;;;;;;;7.60;1.20;;;2.20;99.90;;;;;;4940810;29;20494;-80
2022/01/20 06:48:07;;;;;;;16.17;2.45;;;2.20;99.90;;;;;;4939927;28;20406;-79
2022/01/20 06:50:33;;;;;;;7.50;1.73;;;2.20;99.90;;;;;;4955587;29;20043;-80
2022/01/20 06:52:58;;;;;;;7.85;1.50;;;2.30;99.90;;;;;;4954883;29;20559;-80
2022/01/20 06:55:24;;;;;;;11.25;2.08;;;2.30;99.90;;;;;;4954135;29;20098;-80
2022/01/20 06:57:49;;;;;;;6.05;1.27;;;2.30;99.90;;;;;;4955279;29;20039;-79
2022/01/20 07:00:17;;;;;;;12.30;1.88;;;2.30;99.90;;;;;;4956242;28;20594;-80
2022/01/20 07:02:45;;;;;;;8.60;1.30;;;2.30;99.90;;;;;;4955198;29;20053;-80
2022/01/20 07:05:12;;;;;;;7.15;1.60;;;2.20;99.90;;;;;;4955839;28;20071;-80
2022/01/20 07:07:39;;;;;;;5.95;1.30;;;2.30;99.90;;;;;;4952470;29;20063;-82
2022/01/20 07:10:06;;;;;;;4.40;0.93;;;2.20;99.90;;;;;;4952727;29;20042;-80
2022/01/20 07:12:32;;;;;;;5.35;1.23;;;2.30;99.90;;;;;;4953991;28;20442;-78
2022/01/20 07:14:57;;;;;;;10.35;1.88;;;2.20;99.90;;;;;;4936758;29;20097;-78
2022/01/20 07:17:23;;;;;;;8.68;1.27;;;2.20;99.90;;;;;;4936657;29;20477;-78
2022/01/20 07:19:48;;;;;;;6.57;1.48;;;2.20;99.90;;;;;;4936686;29;20414;-82
2022/01/20 07:22:15;;;;;;;9.75;2.08;;;2.20;99.90;;;;;;4936894;29;20039;-79
2022/01/20 07:24:41;;;;;;;16.33;2.03;;;2.10;99.90;;;;;;4936986;29;20450;-82
2022/01/20 07:27:06;;;;;;;10.38;1.83;;;2.10;99.90;;;;;;4936407;29;20043;-78
2022/01/20 07:29:32;;;;;;;7.03;1.23;;;2.20;99.90;;;;;;4953023;29;20537;-79
2022/01/20 07:31:59;;;;;;;12.77;2.38;;;2.10;99.90;;;;;;4936882;29;20043;-79
2022/01/20 07:34:25;;;;;;;13.23;1.80;;;2.00;99.90;;;;;;4952971;29;20149;-81
2022/01/20 07:36:51;;;;;;;13.13;1.85;;;2.00;99.90;;;;;;4936811;29;20514;-82
2022/01/20 07:39:16;;;;;;;4.85;1.55;;;1.90;99.90;;;;;;4936997;29;20406;-78
2022/01/20 07:41:42;;;;;;;12.95;1.55;;;2.00;99.90;;;;;;4953052;29;20043;-79
2022/01/20 07:44:09;;;;;;;14.38;3.58;;;2.00;99.90;;;;;;4936962;29;20055;-78
2022/01/20 07:46:35;;;;;;;8.10;1.85;;;2.00;99.90;;;;;;4936583;29;20376;-78
2022/01/20 07:49:00;;;;;;;15.20;1.52;;;2.00;99.90;;;;;;4936684;29;20047;-78
2022/01/20 07:51:26;;;;;;;34.42;1.80;;;2.00;99.90;;;;;;4936975;29;20401;-79
2022/01/20 07:53:52;;;;;;;13.85;1.77;;;2.10;99.90;;;;;;4953111;29;20083;-80
2022/01/20 07:56:18;;;;;;;9.77;2.58;;;2.10;99.90;;;;;;4937105;29;20047;-80
2022/01/20 07:58:43;;;;;;;6.10;1.52;;;2.20;99.90;;;;;;4936783;29;20035;-82
2022/01/20 08:01:09;;;;;;;11.65;1.45;;;2.20;99.90;;;;;;4954056;28;20534;-79
2022/01/20 08:03:35;;;;;;;16.15;1.67;;;2.20;99.90;;;;;;4941032;29;20047;-79
2022/01/20 08:06:00;;;;;;;8.32;1.88;;;2.20;99.90;;;;;;4940852;29;20495;-79
2022/01/20 08:08:26;;;;;;;9.98;2.13;;;2.20;99.90;;;;;;4940534;29;20090;-80
2022/01/20 08:10:51;;;;;;;10.57;2.08;;;2.20;99.90;;;;;;4958156;28;20399;-78
2022/01/20 08:13:17;;;;;;;39.55;12.32;;;2.30;99.90;;;;;;4956653;29;20043;-78
2022/01/20 08:15:44;;;;;;;21.83;5.57;;;2.20;99.90;;;;;;4939890;29;20570;-78
2022/01/20 08:18:10;;;;;;;19.88;3.35;;;2.20;99.90;;;;;;4955845;29;20040;-78
2022/01/20 08:20:36;;;;;;;12.35;4.47;;;2.30;99.90;;;;;;4940522;29;20035;-81
2022/01/20 08:23:02;;;;;;;11.48;4.13;;;2.30;99.90;;;;;;4955833;29;20039;-78
2022/01/20 08:25:28;;;;;;;10.48;3.13;;;2.30;99.90;;;;;;4955683;29;20043;-78
2022/01/20 08:27:54;;;;;;;7.53;1.92;;;2.30;99.90;;;;;;4940038;29;20384;-78
2022/01/20 08:30:21;;;;;;;15.45;2.83;;;2.30;99.90;;;;;;4955754;29;20039;-78
2022/01/20 08:32:48;;;;;;;15.98;2.75;;;2.40;99.90;;;;;;4955919;29;20051;-79
2022/01/20 08:35:14;;;;;;;9.77;2.53;;;2.40;99.90;;;;;;4939574;29;20047;-78
2022/01/20 08:37:43;;;;;;;13.02;3.40;;;2.40;99.90;;;;;;4956932;28;20047;-78
2022/01/20 08:40:12;;;;;;;10.20;2.60;;;2.50;99.90;;;;;;4957127;28;20051;-81
2022/01/20 08:42:38;;;;;;;7.22;1.75;;;2.50;99.90;;;;;;4957189;28;20039;-79
2022/01/20 08:45:05;;;;;;;18.20;2.88;;;2.60;99.90;;;;;;4957193;28;20097;-80
2022/01/20 08:47:31;;;;;;;9.60;2.00;;;2.70;99.90;;;;;;4955706;29;20516;-82
2022/01/20 08:49:58;;;;;;;12.25;2.15;;;2.70;99.90;;;;;;4956843;28;20553;-81
2022/01/20 08:52:28;;;;;;;9.45;1.52;;;2.80;99.90;;;;;;4955473;29;20098;-77
2022/01/20 08:54:54;;;;;;;10.18;1.60;;;2.90;99.90;;;;;;4955273;29;20047;-79
2022/01/20 08:57:20;;;;;;;10.32;1.50;;;2.90;99.90;;;;;;4940188;29;20051;-81
2022/01/20 08:59:45;;;;;;;13.73;2.20;;;2.90;99.90;;;;;;4960986;28;20486;-80
2022/01/20 09:02:11;;;;;;;28.15;3.80;;;3.00;99.90;;;;;;4961070;28;20043;-82
2022/01/20 09:04:38;;;;;;;7.03;1.77;;;3.00;99.90;;;;;;4957425;29;20403;-81
2022/01/20 09:07:04;;;;;;;9.65;1.73;;;3.00;99.90;;;;;;4956967;29;20047;-81
2022/01/20 09:09:29;;;;;;;12.30;1.77;;;3.00;99.90;;;;;;4957261;28;20038;-80
2022/01/20 09:12:18;;;;;;;13.18;2.20;;;3.10;99.90;;;;;;4960003;28;20032;-83
2022/01/20 09:17:31;;;;;;;12.48;3.75;;;3.30;99.90;;;;;;4959641;29;20043;-81
2022/01/20 09:19:58;;;;;;;7.80;1.58;;;3.40;99.90;;;;;;4961213;28;20035;-84
2022/01/20 09:22:24;;;;;;;11.02;2.70;;;3.40;99.90;;;;;;4940985;29;20047;-82
2022/01/20 09:24:50;;;;;;;14.48;2.28;;;3.40;99.90;;;;;;4925939;29;20448;-83
2022/01/20 09:27:15;;;;;;;19.13;2.60;;;3.30;99.90;;;;;;4955816;28;20138;-78
2022/01/20 09:29:41;;;;;;;7.00;1.92;;;3.30;99.90;;;;;;4954237;29;20067;-78
2022/01/20 09:32:10;;;;;;;7.47;1.77;;;3.30;99.90;;;;;;4938442;29;20042;-77
2022/01/20 09:34:36;;;;;;;10.63;2.17;;;3.20;99.90;;;;;;4938649;29;20475;-79
2022/01/20 09:37:02;;;;;;;12.60;1.75;;;3.30;99.90;;;;;;4938491;29;20110;-78
2022/01/20 09:39:28;;;;;;;14.27;2.17;;;3.40;99.90;;;;;;4937508;29;20039;-81
2022/01/20 09:41:54;;;;;;;9.50;2.22;;;3.60;99.90;;;;;;4953684;29;20118;-78
2022/01/20 09:44:20;;;;;;;11.07;2.15;;;3.80;99.90;;;;;;4948827;29;20046;-81
2022/01/20 09:46:46;;;;;;;12.55;2.60;;;4.20;99.90;;;;;;4965340;29;20047;-80
2022/01/20 09:49:13;;;;;;;13.32;2.42;;;4.70;99.90;;;;;;4962895;29;20085;-81
2022/01/20 09:51:39;;;;;;;13.57;3.22;;;4.90;99.90;;;;;;4965102;28;20081;-80
2022/01/20 09:54:06;;;;;;;15.00;3.63;;;4.90;99.90;;;;;;4967174;28;20031;-81
2022/01/20 09:56:32;;;;;;;11.20;2.08;;;5.20;99.90;;;;;;4946371;29;20055;-81
2022/01/20 09:58:57;;;;;;;10.85;2.80;;;5.50;99.90;;;;;;4964398;28;20042;-81
2022/01/20 10:01:36;;;;;;;9.43;2.40;;;5.70;99.90;;;;;;4964593;29;20078;-81
2022/01/20 10:04:02;;;;;;;14.95;2.78;;;5.70;99.90;;;;;;4964458;28;20039;-81
2022/01/20 10:06:27;;;;;;;15.15;2.65;;;5.60;99.90;;;;;;4947666;29;20058;-81
2022/01/20 10:09:01;;;;;;;11.82;1.55;;;5.40;99.90;;;;;;4963700;29;20039;-81
2022/01/20 10:11:29;;;;;;;10.48;2.10;;;5.10;99.90;;;;;;4959639;29;20227;-81
2022/01/20 10:13:59;;;;;;;13.27;1.95;;;4.90;99.90;;;;;;4963198;29;20050;-81
2022/01/20 10:16:24;;;;;;;11.68;2.03;;;4.80;99.90;;;;;;4961221;29;20051;-81
2022/01/20 10:18:57;;;;;;;9.80;1.45;;;4.80;99.90;;;;;;4963282;28;20094;-81
2022/01/20 10:21:32;;;;;;;14.27;2.08;;;4.70;99.90;;;;;;4964467;29;20054;-81
2022/01/20 10:24:12;;;;;;;10.07;1.50;;;4.60;99.90;;;;;;4957112;28;20091;-80
2022/01/20 10:26:39;;;;;;;8.38;1.50;;;4.50;99.90;;;;;;4953654;29;20388;-80
2022/01/20 10:29:15;;;;;;;7.07;1.50;;;4.40;99.90;;;;;;4954011;29;20044;-80
2022/01/20 10:31:42;;;;;;;7.95;1.70;;;4.40;99.90;;;;;;4938134;29;20039;-79
2022/01/20 10:34:30;;;;;;;8.48;2.50;;;4.50;99.90;;;;;;4954093;29;20047;-80
2022/01/20 10:37:00;;;;;;;8.05;2.15;;;4.50;99.90;;;;;;4953856;29;20130;-80
2022/01/20 10:39:39;;;;;;;5.88;1.50;;;4.50;99.90;;;;;;4953922;29;20043;-80
2022/01/20 10:42:07;;;;;;;7.13;1.73;;;4.50;99.90;;;;;;4953899;29;20105;-80
2022/01/20 10:44:53;;;;;;;8.57;1.95;;;4.50;99.90;;;;;;4953556;29;20047;-79
2022/01/20 10:47:22;;;;;;;8.52;1.75;;;4.60;99.90;;;;;;4953425;29;20122;-80
2022/01/20 10:49:48;;;;;;;12.95;2.35;;;4.70;99.90;;;;;;4953571;29;20043;-81
2022/01/20 10:52:18;;;;;;;9.63;1.52;;;5.00;99.90;;;;;;4953459;29;20055;-80
2022/01/20 10:54:53;;;;;;;10.30;1.63;;;5.00;99.90;;;;;;4953737;29;20082;-80
2022/01/20 10:57:30;;;;;;;5.30;1.08;;;5.00;99.90;;;;;;4953510;29;20053;-81
2022/01/20 10:59:58;;;;;;;10.18;1.30;;;4.60;99.90;;;;;;4953423;29;20118;-79
2022/01/20 11:02:29;;;;;;;8.63;1.60;;;4.30;99.90;;;;;;4953379;29;20125;-80
2022/01/20 11:04:56;;;;;;;9.25;1.60;;;4.10;99.90;;;;;;4953544;29;20372;-80
2022/01/20 11:07:23;;;;;;;2.58;1.42;;;4.00;99.90;;;;;;4953182;29;20043;-79
2022/01/20 11:09:55;;;;;;;5.03;1.17;;;3.90;99.90;;;;;;4953588;29;20051;-80
2022/01/20 11:12:21;;;;;;;4.78;0.98;;;3.80;99.90;;;;;;4953778;29;20039;-80
2022/01/20 11:14:51;;;;;;;9.35;0.90;;;3.90;99.90;;;;;;4953617;29;20046;-79
2022/01/20 11:17:36;;;;;;;5.10;1.75;;;4.00;99.90;;;;;;4953695;29;20047;-80
2022/01/20 11:20:13;;;;;;;9.10;1.25;;;4.00;99.90;;;;;;4953777;29;20059;-79
2022/01/20 11:23:04;;;;;;;10.18;1.05;;;4.00;99.90;;;;;;4954184;29;20583;-79
2022/01/20 11:25:37;;;;;;;7.28;1.70;;;4.20;99.90;;;;;;4955671;29;20090;-82
2022/01/20 11:28:09;;;;;;;8.10;1.10;;;4.30;99.90;;;;;;4957574;29;20110;-82
2022/01/20 11:30:39;;;;;;;7.40;1.55;;;4.40;99.90;;;;;;4956655;29;20063;-81
2022/01/20 11:33:05;;;;;;;11.05;1.30;;;4.40;99.90;;;;;;4955795;29;20394;-82
2022/01/20 11:35:54;;;;;;;5.38;0.93;;;4.40;99.90;;;;;;4956869;28;20046;-82
2022/01/20 11:38:22;;;;;;;13.65;1.73;;;4.10;99.90;;;;;;4959605;29;20502;-82
2022/01/20 11:41:00;;;;;;;8.00;1.05;;;3.90;99.90;;;;;;4959331;29;20098;-82
2022/01/20 11:43:34;;;;;;;4.25;1.63;;;3.80;99.90;;;;;;4958561;29;20031;-81
2022/01/20 11:46:06;;;;;;;5.97;1.10;;;3.60;99.90;;;;;;4957888;29;20124;-81
2022/01/20 11:48:32;;;;;;;;;;;3.50;99.90;;;;;;4958764;29;20051;-81
2022/01/20 11:51:06;;;;;;;4.70;0.90;;;3.50;99.90;;;;;;4941755;29;19926;-82
2022/01/20 11:53:31;;;;;;;9.27;1.75;;;3.60;99.90;;;;;;4957957;29;20118;-82
2022/01/20 11:55:57;;;;;;;10.07;1.70;;;3.60;99.90;;;;;;4942544;29;20039;-81
2022/01/20 11:58:25;;;;;;;13.32;1.50;;;3.70;99.90;;;;;;4958068;29;20054;-81
2022/01/20 12:01:06;;;;;;;8.10;1.48;;;3.80;99.90;;;;;;4942534;29;20050;-82
2022/01/20 12:03:33;;;;;;;14.40;1.70;;;3.90;99.90;;;;;;4957110;29;20526;-77
2022/01/20 12:06:07;;;;;;;4.85;1.23;;;4.00;99.90;;;;;;4955498;29;20051;-78
2022/01/20 12:08:33;;;;;;;4.07;1.15;;;4.20;99.90;;;;;;4955921;29;20046;-77
2022/01/20 12:11:08;;;;;;;8.93;1.10;;;4.30;99.90;;;;;;4957968;29;20486;-81
2022/01/20 12:13:48;;;;;;;8.05;1.90;;;4.40;99.90;;;;;;4957989;29;20556;-82
2022/01/20 12:16:22;;;;;;;14.38;1.63;;;4.50;99.90;;;;;;4957442;29;20078;-82
2022/01/20 12:18:59;;;;;;;4.60;1.45;;;4.60;99.90;;;;;;4958432;29;20062;-81
2022/01/20 12:21:26;;;;;;;8.70;2.13;;;4.70;99.90;;;;;;4957816;29;20035;-82
2022/01/20 12:23:54;;;;;;;7.75;1.48;;;4.70;99.90;;;;;;4956869;29;20047;-78
2022/01/20 12:26:20;;;;;;;12.05;2.15;;;4.80;99.90;;;;;;4955172;29;20058;-78
2022/01/20 12:28:47;;;;;;;7.10;1.33;;;4.80;99.90;;;;;;4939366;29;20078;-78
2022/01/20 12:31:13;;;;;;;9.55;1.65;;;4.80;99.90;;;;;;4955486;29;20099;-78
2022/01/20 12:33:44;;;;;;;11.65;2.15;;;4.90;99.90;;;;;;4955345;29;20107;-77
2022/01/20 12:36:15;;;;;;;7.07;1.40;;;4.90;99.90;;;;;;4955241;29;20051;-78
2022/01/20 12:38:41;;;;;;;6.18;1.48;;;5.00;99.90;;;;;;4955230;29;20047;-78
2022/01/20 12:41:11;;;;;;;16.98;3.20;;;5.10;99.90;;;;;;4956454;28;20043;-78
2022/01/20 12:43:56;;;;;;;7.45;1.67;;;5.20;99.90;;;;;;4955369;29;20130;-78
2022/01/20 12:46:25;;;;;;;13.70;1.98;;;5.30;99.90;;;;;;4954284;28;20054;-78
2022/01/20 12:49:04;;;;;;;7.40;1.55;;;5.40;99.90;;;;;;4939138;29;20040;-78
2022/01/20 12:51:30;;;;;;;10.82;1.60;;;5.40;99.90;;;;;;4955039;29;20481;-78
2022/01/20 12:54:04;;;;;;;8.68;1.65;;;5.40;99.90;;;;;;4955153;29;20071;-78
2022/01/20 12:56:35;;;;;;;7.30;1.70;;;5.40;99.90;;;;;;4954870;29;20051;-78
2022/01/20 12:59:01;;;;;;;6.07;1.42;;;5.40;99.90;;;;;;4954908;29;20047;-78
2022/01/20 13:01:41;;;;;;;12.00;1.80;;;5.40;99.90;;;;;;4955193;29;20047;-79
2022/01/20 13:04:09;;;;;;;11.68;2.35;;;5.40;99.90;;;;;;4955178;29;20062;-78
2022/01/20 13:06:39;;;;;;;10.07;1.42;;;5.40;99.90;;;;;;4938508;29;20411;-78
2022/01/20 13:09:09;;;;;;;14.68;1.98;;;5.50;99.90;;;;;;4955224;29;20039;-78
2022/01/20 13:11:41;;;;;;;6.47;1.33;;;5.60;99.90;;;;;;4954832;29;20039;-79
2022/01/20 13:14:08;;;;;;;15.10;2.70;;;5.50;99.90;;;;;;4956570;29;20051;-81
2022/01/20 13:16:34;;;;;;;6.85;1.30;;;5.40;99.90;;;;;;4958479;29;20047;-82
2022/01/20 13:19:02;;;;;;;7.40;1.70;;;5.40;99.90;;;;;;4957794;29;20063;-82
2022/01/20 13:21:38;;;;;;;11.55;2.22;;;5.40;99.90;;;;;;4958042;29;20094;-82
2022/01/20 13:24:06;;;;;;;8.13;1.15;;;5.40;99.90;;;;;;4940747;29;20138;-84
2022/01/20 13:26:44;;;;;;;15.52;1.30;;;5.40;99.90;;;;;;4956925;29;20039;-82
2022/01/20 13:29:10;;;;;;;10.35;1.63;;;5.50;99.90;;;;;;4957011;29;20094;-82
2022/01/20 13:31:35;;;;;;;20.60;3.58;;;5.60;99.90;;;;;;4956867;29;20042;-81
2022/01/20 13:34:09;;;;;;;7.43;1.27;;;5.70;99.90;;;;;;4957843;29;20471;-82
2022/01/20 13:36:45;;;;;;;7.95;2.20;;;5.80;99.90;;;;;;4940811;29;20543;-81
2022/01/20 13:39:11;;;;;;;7.65;1.08;;;5.80;99.90;;;;;;4958351;29;20414;-82
2022/01/20 13:41:37;;;;;;;8.13;1.75;;;5.80;99.90;;;;;;4958162;29;20039;-82
2022/01/20 13:47:09;;;;;;;12.30;1.58;;;5.80;99.90;;;;;;4956719;29;20094;-82
2022/01/20 13:49:46;;;;;;;3.92;1.13;;;5.70;99.90;;;;;;4956329;29;20044;-82
2022/01/20 13:52:14;;;;;;;7.97;1.80;;;5.70;99.90;;;;;;4956986;29;20388;-82
2022/01/20 13:54:42;;;;;;;4.90;1.10;;;5.50;99.90;;;;;;4956338;29;20082;-82